Time;durP1;ratioP1;P1;durP2;ratioP2;P2;SDS_P1;SDS_P2;PMS_P1;PMS_P2;Temp;Humidity;BMP_temperature;BMP_pressure;BME280_temperature;BME280_humidity;BME280_pressure;Samples;Min_cycle;Max_cycle;Signal;HPM_P1;HPM_P2
2021/05/15 00:00:56;;;;;;;25.97;15.25;;;11.10;99.90;;;;;;1820644;78;21177;-74
2021/05/15 00:03:23;;;;;;;23.62;14.73;;;11.00;99.90;;;;;;1818167;78;22135;-75
2021/05/15 00:05:51;;;;;;;21.93;15.15;;;10.90;99.90;;;;;;1817784;77;21126;-75
2021/05/15 00:08:18;;;;;;;23.45;15.70;;;10.80;99.90;;;;;;1820763;77;21133;-75
2021/05/15 00:10:48;;;;;;;20.57;15.55;;;10.90;99.90;;;;;;1818287;78;21468;-75
2021/05/15 00:13:16;;;;;;;25.90;16.32;;;10.80;99.90;;;;;;1820285;78;22104;-72
2021/05/15 00:15:44;;;;;;;22.17;15.30;;;10.60;99.90;;;;;;1816266;78;21130;-75
2021/05/15 00:18:11;;;;;;;21.77;15.15;;;10.70;99.90;;;;;;1820035;78;21074;-75
2021/05/15 00:20:39;;;;;;;23.87;15.68;;;10.70;99.90;;;;;;1817348;78;21102;-73
2021/05/15 00:23:06;;;;;;;23.55;16.60;;;10.70;99.90;;;;;;1822495;77;21079;-75
2021/05/15 00:25:34;;;;;;;23.15;15.20;;;10.60;99.90;;;;;;1818989;78;21102;-75
2021/05/15 00:28:01;;;;;;;24.02;15.83;;;10.60;99.90;;;;;;1821329;78;21365;-74
2021/05/15 00:30:29;;;;;;;23.22;16.17;;;10.60;99.90;;;;;;1817861;77;21134;-75
2021/05/15 00:32:56;;;;;;;28.95;16.67;;;10.50;99.90;;;;;;1819744;77;21105;-75
2021/05/15 00:35:24;;;;;;;26.30;15.63;;;10.40;99.90;;;;;;1817251;78;21118;-75
2021/05/15 00:37:52;;;;;;;24.47;15.78;;;10.30;99.90;;;;;;1819371;78;21086;-75
2021/05/15 00:40:19;;;;;;;24.07;16.30;;;10.30;99.90;;;;;;1823142;78;21723;-74
2021/05/15 00:42:47;;;;;;;24.35;16.95;;;10.30;99.90;;;;;;1820822;77;21059;-75
2021/05/15 00:45:16;;;;;;;28.05;16.50;;;10.40;99.90;;;;;;1818894;78;21156;-75
2021/05/15 00:47:44;;;;;;;24.00;15.78;;;10.50;99.90;;;;;;1821417;78;21055;-75
2021/05/15 00:50:12;;;;;;;21.05;15.30;;;10.40;99.90;;;;;;1821694;78;21820;-75
2021/05/15 00:52:40;;;;;;;27.52;16.32;;;10.30;99.90;;;;;;1818792;78;21525;-76
2021/05/15 00:55:15;;;;;;;24.23;16.55;;;10.20;99.90;;;;;;1799972;78;21238;-75
2021/05/15 00:57:43;;;;;;;24.90;16.42;;;10.10;99.90;;;;;;1820585;78;21138;-76
2021/05/15 01:00:12;;;;;;;25.45;16.57;;;10.10;99.90;;;;;;1817796;78;21106;-75
2021/05/15 01:02:41;;;;;;;22.48;16.87;;;10.00;99.90;;;;;;1820870;78;21133;-72
2021/05/15 01:05:11;;;;;;;22.35;16.80;;;10.10;99.90;;;;;;1815308;78;21094;-75
2021/05/15 01:07:38;;;;;;;23.27;17.20;;;10.10;99.90;;;;;;1819013;78;21167;-75
2021/05/15 01:10:07;;;;;;;26.07;16.85;;;10.00;99.90;;;;;;1822567;78;21114;-74
2021/05/15 01:12:36;;;;;;;25.08;16.90;;;9.90;99.90;;;;;;1817986;78;21645;-74
2021/05/15 01:15:04;;;;;;;21.30;16.23;;;10.00;99.90;;;;;;1787938;79;21087;-74
2021/05/15 01:17:32;;;;;;;23.55;16.75;;;10.00;99.90;;;;;;1820069;78;21098;-74
2021/05/15 01:19:59;;;;;;;23.40;16.23;;;9.90;99.90;;;;;;1819565;77;21110;-74
2021/05/15 01:22:27;;;;;;;22.62;16.75;;;10.00;99.90;;;;;;1820551;78;21098;-74
2021/05/15 01:24:54;;;;;;;22.65;16.73;;;10.00;99.90;;;;;;1823595;78;21137;-74
2021/05/15 01:27:22;;;;;;;23.30;15.95;;;10.20;99.90;;;;;;1823443;78;21047;-74
2021/05/15 01:29:50;;;;;;;28.90;17.20;;;10.10;99.90;;;;;;1820321;78;21105;-74
2021/05/15 01:32:17;;;;;;;27.27;17.02;;;10.10;99.90;;;;;;1816888;78;21646;-74
2021/05/15 01:34:45;;;;;;;29.07;18.23;;;10.10;99.90;;;;;;1817384;78;21118;-74
2021/05/15 01:37:12;;;;;;;25.80;18.40;;;10.10;99.90;;;;;;1821219;78;21087;-74
2021/05/15 01:39:40;;;;;;;24.43;17.65;;;10.20;99.90;;;;;;1820015;78;21175;-74
2021/05/15 01:42:07;;;;;;;25.62;18.05;;;10.20;99.90;;;;;;1819581;78;21586;-75
2021/05/15 01:44:35;;;;;;;24.35;18.32;;;10.30;99.90;;;;;;1823905;78;21126;-75
2021/05/15 01:47:02;;;;;;;29.40;19.92;;;10.40;99.90;;;;;;1819947;78;21043;-75
2021/05/15 01:49:30;;;;;;;28.45;19.35;;;10.40;99.90;;;;;;1816792;78;21552;-75
2021/05/15 01:51:57;;;;;;;27.42;18.32;;;10.40;99.90;;;;;;1820401;78;21220;-75
2021/05/15 01:54:25;;;;;;;24.47;19.07;;;10.50;99.90;;;;;;1819887;78;21434;-74
2021/05/15 01:56:52;;;;;;;24.55;18.55;;;10.50;99.90;;;;;;1819625;78;21637;-75
2021/05/15 01:59:20;;;;;;;26.62;19.55;;;10.50;99.90;;;;;;1823823;78;21571;-74
2021/05/15 02:01:47;;;;;;;26.62;19.30;;;10.40;99.90;;;;;;1815269;78;21130;-74
2021/05/15 02:04:15;;;;;;;30.00;19.62;;;10.40;99.90;;;;;;1821860;77;21106;-74
2021/05/15 02:06:42;;;;;;;31.80;19.82;;;10.50;99.90;;;;;;1822095;78;21476;-74
2021/05/15 02:09:10;;;;;;;28.30;19.30;;;10.50;99.90;;;;;;1815374;78;21201;-74
2021/05/15 02:11:39;;;;;;;28.23;19.82;;;10.50;99.90;;;;;;1819806;78;21145;-74
2021/05/15 02:14:07;;;;;;;30.65;18.80;;;10.60;99.90;;;;;;1821562;77;21223;-74
2021/05/15 02:16:34;;;;;;;28.40;20.12;;;10.60;99.90;;;;;;1821351;78;21560;-75
2021/05/15 02:19:02;;;;;;;27.77;19.02;;;10.70;99.90;;;;;;1818230;78;21105;-75
2021/05/15 02:21:29;;;;;;;31.55;20.15;;;10.90;99.90;;;;;;1818201;78;21122;-76
2021/05/15 02:23:57;;;;;;;27.00;20.05;;;10.80;99.90;;;;;;1820389;78;21071;-75
2021/05/15 02:26:25;;;;;;;28.67;18.55;;;10.70;99.90;;;;;;1819340;78;21551;-75
2021/05/15 02:28:52;;;;;;;28.05;19.25;;;10.70;99.90;;;;;;1823952;78;21106;-75
2021/05/15 02:31:20;;;;;;;33.02;20.68;;;10.70;99.90;;;;;;1817503;78;21141;-74
2021/05/15 02:33:47;;;;;;;30.68;19.10;;;10.70;99.90;;;;;;1817810;78;21169;-76
2021/05/15 02:36:15;;;;;;;28.67;20.57;;;10.80;99.90;;;;;;1818332;78;21106;-74
2021/05/15 02:38:42;;;;;;;27.82;20.15;;;10.80;99.90;;;;;;1820088;78;21106;-75
2021/05/15 02:41:10;;;;;;;31.10;21.68;;;10.80;99.90;;;;;;1819136;78;21216;-75
2021/05/15 02:43:37;;;;;;;34.00;22.17;;;11.00;99.90;;;;;;1817333;78;21356;-75
2021/05/15 02:46:05;;;;;;;32.20;21.82;;;11.00;99.90;;;;;;1816313;77;21085;-75
2021/05/15 02:48:32;;;;;;;30.92;21.25;;;11.00;99.90;;;;;;1820432;78;21141;-74
2021/05/15 02:51:00;;;;;;;29.77;22.17;;;11.00;99.90;;;;;;1818547;78;21298;-75
2021/05/15 02:53:27;;;;;;;35.63;22.25;;;11.00;99.90;;;;;;1818296;78;21203;-74
2021/05/15 02:55:55;;;;;;;34.27;23.18;;;10.90;99.90;;;;;;1821806;78;21118;-74
2021/05/15 02:58:22;;;;;;;35.73;22.27;;;10.90;99.90;;;;;;1822211;78;21090;-75
2021/05/15 03:00:50;;;;;;;32.95;23.05;;;10.90;99.90;;;;;;1820911;78;21203;-74
2021/05/15 03:03:17;;;;;;;33.98;23.70;;;10.80;99.90;;;;;;1818953;78;21106;-75
2021/05/15 03:05:45;;;;;;;30.23;22.13;;;10.90;99.90;;;;;;1787368;80;21149;-75
2021/05/15 03:08:12;;;;;;;34.18;23.12;;;10.90;99.90;;;;;;1819211;78;21231;-74
2021/05/15 03:10:40;;;;;;;35.25;21.93;;;10.90;99.90;;;;;;1816751;78;21169;-75
2021/05/15 03:13:07;;;;;;;32.98;22.35;;;11.00;99.90;;;;;;1818387;78;21129;-75
2021/05/15 03:15:35;;;;;;;35.30;22.67;;;11.00;99.90;;;;;;1821920;78;21219;-74
2021/05/15 03:18:02;;;;;;;39.20;22.00;;;10.90;99.90;;;;;;1821522;78;21219;-75
2021/05/15 03:20:30;;;;;;;31.97;21.90;;;11.00;99.90;;;;;;1822078;78;21328;-74
2021/05/15 03:22:57;;;;;;;28.83;20.23;;;11.00;99.90;;;;;;1820814;78;21331;-75
2021/05/15 03:25:28;;;;;;;32.95;21.37;;;11.00;99.90;;;;;;1819965;77;21141;-75
2021/05/15 03:27:55;;;;;;;29.75;21.57;;;11.10;99.90;;;;;;1817578;78;21054;-74
2021/05/15 03:30:23;;;;;;;28.38;20.23;;;11.10;99.90;;;;;;1820950;78;21223;-74
2021/05/15 03:32:50;;;;;;;30.10;19.48;;;11.00;99.90;;;;;;1818738;78;21090;-74
2021/05/15 03:35:19;;;;;;;28.23;19.32;;;11.00;99.90;;;;;;1821073;78;21942;-74
2021/05/15 03:37:47;;;;;;;26.35;19.00;;;11.00;99.90;;;;;;1819857;78;21095;-75
2021/05/15 03:40:15;;;;;;;28.47;18.90;;;11.10;99.90;;;;;;1822118;77;21192;-75
2021/05/15 03:42:43;;;;;;;30.48;19.12;;;10.90;99.90;;;;;;1821203;77;21195;-75
2021/05/15 03:45:10;;;;;;;29.55;19.02;;;11.00;99.90;;;;;;1817438;78;21553;-75
2021/05/15 03:47:38;;;;;;;27.35;18.40;;;11.10;99.90;;;;;;1822856;78;21100;-74
2021/05/15 03:50:07;;;;;;;26.80;17.95;;;10.90;99.90;;;;;;1818891;78;22145;-74
2021/05/15 03:52:34;;;;;;;25.45;18.00;;;11.00;99.90;;;;;;1820291;78;21404;-75
2021/05/15 03:55:03;;;;;;;29.32;18.55;;;11.00;99.90;;;;;;1788796;79;21055;-75
2021/05/15 03:57:31;;;;;;;28.67;19.10;;;11.00;99.90;;;;;;1820988;78;21203;-75
2021/05/15 03:59:58;;;;;;;23.98;18.37;;;11.00;99.90;;;;;;1817140;78;21153;-75
2021/05/15 04:02:26;;;;;;;27.15;18.52;;;11.00;99.90;;;;;;1818586;78;21535;-75
2021/05/15 04:04:53;;;;;;;31.52;18.55;;;11.10;99.90;;;;;;1819772;78;21109;-74
2021/05/15 04:07:21;;;;;;;27.73;18.00;;;11.00;99.90;;;;;;1817566;78;21187;-74
2021/05/15 04:09:48;;;;;;;26.40;17.17;;;11.00;99.90;;;;;;1818428;78;21134;-74
2021/05/15 04:12:16;;;;;;;28.95;17.37;;;11.00;99.90;;;;;;1820733;78;21183;-75
2021/05/15 04:15:05;;;;;;;25.77;17.30;;;11.00;99.90;;;;;;1819944;78;21219;-75
2021/05/15 04:17:32;;;;;;;24.82;17.92;;;11.10;99.90;;;;;;1818469;78;21599;-75
2021/05/15 04:20:00;;;;;;;24.05;16.42;;;11.10;99.90;;;;;;1818218;78;21243;-75
2021/05/15 04:22:28;;;;;;;26.00;16.05;;;11.10;99.90;;;;;;1823028;78;21171;-75
2021/05/15 04:24:58;;;;;;;26.57;16.30;;;11.20;99.90;;;;;;1817841;78;21203;-75
2021/05/15 04:27:25;;;;;;;21.50;14.95;;;11.20;99.90;;;;;;1818320;77;22250;-75
2021/05/15 04:29:54;;;;;;;26.70;15.68;;;11.10;99.90;;;;;;1820079;78;21658;-74
2021/05/15 04:32:22;;;;;;;22.65;15.65;;;11.10;99.90;;;;;;1820548;78;21228;-75
2021/05/15 04:34:50;;;;;;;23.00;16.00;;;11.10;99.90;;;;;;1819700;78;21161;-75
2021/05/15 04:37:17;;;;;;;20.85;14.55;;;11.00;99.90;;;;;;1818998;77;21176;-74
2021/05/15 04:39:45;;;;;;;26.80;16.07;;;11.10;99.90;;;;;;1820132;78;21113;-75
2021/05/15 04:42:13;;;;;;;22.95;15.18;;;11.10;99.90;;;;;;1819648;77;21145;-75
2021/05/15 04:44:40;;;;;;;22.77;16.45;;;11.00;99.90;;;;;;1819820;78;21106;-74
2021/05/15 04:47:08;;;;;;;25.90;16.05;;;11.10;99.90;;;;;;1817999;78;21122;-74
2021/05/15 04:49:35;;;;;;;26.50;16.40;;;11.10;99.90;;;;;;1817891;78;21079;-75
2021/05/15 04:52:03;;;;;;;24.40;16.17;;;11.20;99.90;;;;;;1819726;78;21110;-75
2021/05/15 04:54:30;;;;;;;24.37;16.10;;;11.00;99.90;;;;;;1821378;78;21954;-74
2021/05/15 04:56:58;;;;;;;26.00;16.90;;;11.00;99.90;;;;;;1817307;77;21122;-75
2021/05/15 04:59:25;;;;;;;26.20;16.70;;;10.90;99.90;;;;;;1820627;78;21200;-74
2021/05/15 05:01:53;;;;;;;24.70;16.10;;;11.00;99.90;;;;;;1819707;78;21879;-75
2021/05/15 05:04:20;;;;;;;21.40;15.50;;;10.90;99.90;;;;;;1819830;78;21185;-75
2021/05/15 05:06:47;;;;;;;21.75;15.35;;;11.10;99.90;;;;;;1820955;77;21130;-75
2021/05/15 05:09:15;;;;;;;26.27;16.35;;;11.20;99.90;;;;;;1822976;77;22168;-74
2021/05/15 05:11:45;;;;;;;22.52;16.80;;;11.00;99.90;;;;;;1817718;78;21228;-75
2021/05/15 05:14:12;;;;;;;33.28;17.57;;;11.00;99.90;;;;;;1820491;78;21634;-75
2021/05/15 05:16:39;;;;;;;25.20;16.20;;;11.00;99.90;;;;;;1821444;78;21114;-75
2021/05/15 05:19:09;;;;;;;24.87;15.78;;;11.00;99.90;;;;;;1788244;80;21118;-75
2021/05/15 05:21:36;;;;;;;24.47;16.95;;;11.00;99.90;;;;;;1824055;77;21231;-75
2021/05/15 05:24:04;;;;;;;30.12;16.93;;;11.10;99.90;;;;;;1819645;78;21106;-75
2021/05/15 05:26:35;;;;;;;25.77;16.32;;;11.20;99.90;;;;;;1815865;78;21098;-74
2021/05/15 05:29:04;;;;;;;25.25;16.15;;;11.20;99.90;;;;;;1821567;77;21770;-74
2021/05/15 05:31:29;;;;;;;25.62;16.75;;;11.30;99.90;;;;;;1815793;78;21509;-74
2021/05/15 05:33:57;;;;;;;23.92;16.05;;;11.20;99.90;;;;;;1821547;77;21055;-75
2021/05/15 05:36:25;;;;;;;23.73;15.50;;;11.40;99.90;;;;;;1817201;78;21058;-76
2021/05/15 05:38:52;;;;;;;24.05;16.62;;;11.30;99.90;;;;;;1820453;78;21192;-75
2021/05/15 05:41:22;;;;;;;23.42;16.40;;;11.30;99.90;;;;;;1819964;77;21142;-74
2021/05/15 05:43:49;;;;;;;26.27;15.48;;;11.40;99.90;;;;;;1821017;78;21554;-75
2021/05/15 05:46:16;;;;;;;22.93;15.53;;;11.50;99.90;;;;;;1820771;78;21183;-75
2021/05/15 05:48:44;;;;;;;22.40;16.00;;;11.40;99.90;;;;;;1817725;78;21110;-74
2021/05/15 05:51:12;;;;;;;23.85;16.00;;;11.40;99.90;;;;;;1817182;77;21320;-75
2021/05/15 05:53:40;;;;;;;25.77;16.17;;;11.20;99.90;;;;;;1817922;78;21075;-74
2021/05/15 05:56:07;;;;;;;26.82;16.60;;;11.30;99.90;;;;;;1823656;78;21151;-75
2021/05/15 05:58:35;;;;;;;25.25;15.75;;;11.50;99.90;;;;;;1821728;78;21404;-75
2021/05/15 06:01:03;;;;;;;30.45;15.95;;;11.40;99.90;;;;;;1817883;78;21591;-76
2021/05/15 06:03:30;;;;;;;24.45;17.15;;;11.40;99.90;;;;;;1822169;78;21140;-75
2021/05/15 06:05:57;;;;;;;33.25;19.50;;;11.60;99.90;;;;;;1821038;78;21133;-76
2021/05/15 06:08:25;;;;;;;34.03;19.67;;;11.60;99.90;;;;;;1820617;78;21164;-76
2021/05/15 06:10:54;;;;;;;36.48;20.20;;;11.60;99.90;;;;;;1824629;77;21317;-76
2021/05/15 06:13:22;;;;;;;34.65;19.75;;;11.60;99.90;;;;;;1822164;78;21129;-76
2021/05/15 06:15:49;;;;;;;35.25;18.70;;;11.60;99.90;;;;;;1823571;78;21118;-75
2021/05/15 06:18:17;;;;;;;30.95;18.35;;;11.70;99.90;;;;;;1824345;78;21195;-76
2021/05/15 06:20:44;;;;;;;30.00;18.07;;;11.90;99.90;;;;;;1822915;78;21721;-75
2021/05/15 06:23:12;;;;;;;33.05;18.10;;;12.00;99.90;;;;;;1817391;78;21087;-76
2021/05/15 06:25:39;;;;;;;27.13;16.57;;;12.00;99.90;;;;;;1819821;78;21212;-76
2021/05/15 06:28:07;;;;;;;31.23;18.20;;;12.10;99.90;;;;;;1821629;78;21431;-75
2021/05/15 06:30:35;;;;;;;31.65;17.25;;;12.20;99.90;;;;;;1821861;78;21682;-75
2021/05/15 06:33:02;;;;;;;32.10;17.30;;;12.10;99.90;;;;;;1819779;78;21125;-75
2021/05/15 06:35:32;;;;;;;27.75;16.87;;;12.20;99.90;;;;;;1817006;77;21109;-75
2021/05/15 06:38:00;;;;;;;26.48;17.25;;;12.10;99.90;;;;;;1817807;77;21138;-74
2021/05/15 06:40:28;;;;;;;30.05;17.27;;;12.00;99.90;;;;;;1821815;78;21604;-76
2021/05/15 06:42:55;;;;;;;27.42;17.37;;;12.10;99.90;;;;;;1824023;78;21055;-76
2021/05/15 06:45:23;;;;;;;30.48;18.30;;;12.10;99.90;;;;;;1819107;77;21062;-75
2021/05/15 06:47:52;;;;;;;27.93;18.27;;;12.00;99.90;;;;;;1817843;78;21047;-76
2021/05/15 06:50:19;;;;;;;33.18;19.23;;;12.00;99.90;;;;;;1821801;78;21164;-76
2021/05/15 06:52:47;;;;;;;28.07;19.05;;;11.90;99.90;;;;;;1821276;78;21039;-77
2021/05/15 06:55:15;;;;;;;28.15;19.15;;;12.00;99.90;;;;;;1819588;78;21192;-77
2021/05/15 06:57:42;;;;;;;33.65;18.27;;;12.10;99.90;;;;;;1821826;77;21130;-76
2021/05/15 07:00:10;;;;;;;35.78;18.90;;;12.00;99.90;;;;;;1818252;78;21172;-76
2021/05/15 07:02:38;;;;;;;29.82;17.90;;;12.00;99.90;;;;;;1819281;77;21054;-76
2021/05/15 07:05:06;;;;;;;31.70;18.67;;;12.20;99.90;;;;;;1819051;78;21067;-74
2021/05/15 07:07:33;;;;;;;29.72;18.80;;;12.20;99.90;;;;;;1788294;78;21125;-75
2021/05/15 07:10:01;;;;;;;28.00;19.10;;;12.10;99.90;;;;;;1817750;78;21113;-75
2021/05/15 07:12:28;;;;;;;30.48;18.73;;;12.10;99.90;;;;;;1819209;78;22101;-75
2021/05/15 07:14:56;;;;;;;35.83;20.77;;;12.20;99.90;;;;;;1823217;78;21212;-74
2021/05/15 07:17:26;;;;;;;34.95;20.45;;;12.30;99.90;;;;;;1820521;78;21093;-75
2021/05/15 07:19:54;;;;;;;32.33;19.73;;;12.40;99.90;;;;;;1820845;78;21544;-74
2021/05/15 07:22:25;;;;;;;32.67;20.15;;;12.50;99.90;;;;;;1822716;78;21216;-75
2021/05/15 07:24:59;;;;;;;33.50;21.17;;;12.50;99.90;;;;;;1818711;78;21083;-75
2021/05/15 07:27:29;;;;;;;35.65;22.15;;;12.50;99.90;;;;;;1819683;78;21169;-75
2021/05/15 07:30:01;;;;;;;36.38;22.15;;;12.60;99.90;;;;;;1814996;77;21244;-75
2021/05/15 07:32:25;;;;;;;36.98;21.70;;;12.60;99.90;;;;;;1820059;78;22438;-75
2021/05/15 07:34:53;;;;;;;36.95;21.62;;;12.50;99.90;;;;;;1817243;78;21201;-73
2021/05/15 07:37:21;;;;;;;35.25;21.82;;;12.50;99.90;;;;;;1817979;78;21039;-75
2021/05/15 07:39:48;;;;;;;30.52;21.73;;;12.50;99.90;;;;;;1821758;78;21094;-75
2021/05/15 07:42:16;;;;;;;38.85;23.30;;;12.50;99.90;;;;;;1820769;78;21301;-76
2021/05/15 07:44:43;;;;;;;38.38;22.50;;;12.50;99.90;;;;;;1819759;78;21188;-74
2021/05/15 07:47:12;;;;;;;34.92;22.98;;;12.40;99.90;;;;;;1822287;78;21606;-76
2021/05/15 07:49:39;;;;;;;37.50;22.77;;;12.40;99.90;;;;;;1816158;78;21173;-76
2021/05/15 07:52:07;;;;;;;35.35;22.80;;;12.50;99.90;;;;;;1820971;78;21195;-76
2021/05/15 07:54:34;;;;;;;37.98;23.27;;;12.40;99.90;;;;;;1821137;78;21122;-75
2021/05/15 07:57:01;;;;;;;43.08;24.98;;;12.40;99.90;;;;;;1825491;78;21480;-75
2021/05/15 07:59:29;;;;;;;45.15;24.40;;;12.30;99.90;;;;;;1819589;78;21145;-75
2021/05/15 08:01:56;;;;;;;43.10;25.95;;;12.40;99.90;;;;;;1820450;78;21141;-73
2021/05/15 08:04:24;;;;;;;38.98;24.50;;;12.50;99.90;;;;;;1822625;78;21180;-73
2021/05/15 08:06:51;;;;;;;40.25;25.15;;;12.50;99.90;;;;;;1821092;78;21532;-73
2021/05/15 08:09:19;;;;;;;44.50;26.30;;;12.60;99.90;;;;;;1819199;78;21180;-73
2021/05/15 08:11:47;;;;;;;40.98;25.30;;;12.60;99.90;;;;;;1821733;78;21114;-72
2021/05/15 08:14:14;;;;;;;38.78;24.60;;;12.70;99.90;;;;;;1823364;78;21126;-74
2021/05/15 08:16:42;;;;;;;42.50;25.57;;;12.70;99.90;;;;;;1822858;78;21051;-73
2021/05/15 08:19:09;;;;;;;42.03;26.12;;;12.80;99.90;;;;;;1817535;78;21464;-75
2021/05/15 08:21:37;;;;;;;45.52;25.50;;;12.90;99.90;;;;;;1820594;78;21212;-71
2021/05/15 08:24:05;;;;;;;40.80;25.62;;;13.10;99.90;;;;;;1822458;78;21334;-75
2021/05/15 08:26:33;;;;;;;43.40;25.95;;;13.20;99.90;;;;;;1821442;78;21150;-75
2021/05/15 08:29:02;;;;;;;42.88;24.60;;;13.10;99.90;;;;;;1818407;78;21153;-74
2021/05/15 08:31:29;;;;;;;40.23;25.50;;;13.10;99.90;;;;;;1820924;78;21654;-74
2021/05/15 08:33:57;;;;;;;43.45;25.68;;;13.30;99.90;;;;;;1819033;77;21157;-74
2021/05/15 08:36:24;;;;;;;43.38;27.15;;;13.30;99.90;;;;;;1818323;78;21134;-74
2021/05/15 08:38:54;;;;;;;36.85;24.30;;;13.50;99.90;;;;;;1818423;78;21133;-73
2021/05/15 08:41:21;;;;;;;39.78;26.02;;;13.40;99.90;;;;;;1818318;77;21126;-74
2021/05/15 08:43:49;;;;;;;41.02;24.50;;;13.40;99.90;;;;;;1819781;78;21105;-73
2021/05/15 08:46:17;;;;;;;37.40;23.83;;;13.30;99.90;;;;;;1815618;78;21203;-74
2021/05/15 08:48:45;;;;;;;31.62;21.90;;;13.30;99.90;;;;;;1820022;78;21572;-74
2021/05/15 08:51:13;;;;;;;32.50;20.65;;;13.30;99.90;;;;;;1819155;78;22230;-73
2021/05/15 08:53:41;;;;;;;33.33;23.27;;;13.30;99.90;;;;;;1818033;77;21576;-72
2021/05/15 08:56:10;;;;;;;29.00;22.25;;;13.50;99.90;;;;;;1818372;78;21118;-74
2021/05/15 08:58:39;;;;;;;37.73;23.40;;;13.30;99.90;;;;;;1820064;77;21134;-74
2021/05/15 09:01:09;;;;;;;33.28;23.05;;;13.40;99.90;;;;;;1818849;78;21119;-74
2021/05/15 09:03:37;;;;;;;33.55;23.20;;;13.70;99.90;;;;;;1820860;77;21571;-73
2021/05/15 09:06:06;;;;;;;35.45;24.37;;;13.50;99.90;;;;;;1818869;78;21627;-74
2021/05/15 09:08:33;;;;;;;35.83;23.70;;;13.50;99.90;;;;;;1818653;78;21164;-74
2021/05/15 09:11:01;;;;;;;31.75;22.17;;;13.40;99.90;;;;;;1820244;78;21142;-74
2021/05/15 09:13:30;;;;;;;36.45;24.32;;;13.30;99.90;;;;;;1820477;78;21121;-73
2021/05/15 09:16:01;;;;;;;39.83;25.30;;;13.40;99.90;;;;;;1819429;78;21185;-73
2021/05/15 09:18:35;;;;;;;34.20;23.50;;;13.60;99.90;;;;;;1813517;78;21219;-76
2021/05/15 09:21:05;;;;;;;31.45;22.93;;;13.80;99.90;;;;;;1812211;78;21209;-74
2021/05/15 09:23:36;;;;;;;35.65;24.52;;;13.80;99.90;;;;;;1814029;78;21146;-74
2021/05/15 09:26:12;;;;;;;35.50;24.07;;;13.60;99.90;;;;;;1812552;78;21169;-73
2021/05/15 09:28:46;;;;;;;35.55;24.32;;;13.50;99.90;;;;;;1813969;78;21110;-75
2021/05/15 09:31:31;;;;;;;37.93;25.85;;;13.40;99.90;;;;;;1815713;78;21169;-75
2021/05/15 09:34:06;;;;;;;36.65;24.67;;;13.50;99.90;;;;;;1816822;77;21137;-76
2021/05/15 09:36:36;;;;;;;43.58;26.10;;;13.40;99.90;;;;;;1820355;78;21130;-75
2021/05/15 09:39:07;;;;;;;38.15;25.52;;;13.40;99.90;;;;;;1821799;77;21143;-75
2021/05/15 09:41:37;;;;;;;38.92;26.50;;;13.50;99.90;;;;;;1815034;78;21130;-75
2021/05/15 09:44:07;;;;;;;43.75;27.62;;;13.50;99.90;;;;;;1814855;78;22188;-75
2021/05/15 09:46:37;;;;;;;46.55;30.15;;;13.60;99.90;;;;;;1817474;77;21072;-76
2021/05/15 09:49:06;;;;;;;48.45;29.30;;;13.60;99.90;;;;;;1816737;78;21203;-75
2021/05/15 09:51:34;;;;;;;43.38;27.45;;;13.60;99.90;;;;;;1816122;78;22599;-75
2021/05/15 09:54:13;;;;;;;42.10;28.65;;;13.40;99.90;;;;;;1821329;77;21138;-76
2021/05/15 09:56:40;;;;;;;44.55;27.77;;;13.60;99.90;;;;;;1816699;78;21211;-76
2021/05/15 09:59:08;;;;;;;43.25;31.07;;;13.40;99.90;;;;;;1816846;78;21137;-76
2021/05/15 10:01:44;;;;;;;42.93;28.67;;;13.60;99.90;;;;;;1815378;78;21639;-75
2021/05/15 10:04:12;;;;;;;42.33;27.67;;;13.50;99.90;;;;;;1818477;77;21231;-75
2021/05/15 10:06:41;;;;;;;53.17;29.30;;;13.50;99.90;;;;;;1818612;78;21141;-75
2021/05/15 10:09:09;;;;;;;45.75;29.25;;;13.50;99.90;;;;;;1819233;78;21110;-75
2021/05/15 10:11:36;;;;;;;45.52;29.87;;;13.70;99.90;;;;;;1819054;78;21142;-75
2021/05/15 10:14:05;;;;;;;48.28;29.90;;;14.00;99.90;;;;;;1819690;78;21114;-74
2021/05/15 10:16:33;;;;;;;49.60;29.55;;;14.10;99.90;;;;;;1821068;78;21113;-76
2021/05/15 10:19:00;;;;;;;44.33;28.20;;;14.00;99.90;;;;;;1787387;79;21102;-74
2021/05/15 10:21:28;;;;;;;49.03;30.05;;;14.10;99.90;;;;;;1817634;78;21700;-74
2021/05/15 10:23:56;;;;;;;42.65;27.58;;;14.00;99.90;;;;;;1822676;78;21187;-75
2021/05/15 10:26:24;;;;;;;45.88;29.27;;;14.00;99.90;;;;;;1823495;78;21144;-75
2021/05/15 10:29:00;;;;;;;41.08;29.87;;;14.10;99.90;;;;;;1820064;77;21134;-74
2021/05/15 10:31:45;;;;;;;44.45;29.50;;;14.20;99.90;;;;;;1816205;78;21189;-74
2021/05/15 10:34:14;;;;;;;41.83;30.75;;;14.20;99.90;;;;;;1817725;78;21154;-74
2021/05/15 10:36:49;;;;;;;41.58;29.20;;;14.10;99.90;;;;;;1815621;78;21115;-74
2021/05/15 10:39:31;;;;;;;40.20;29.65;;;14.10;99.90;;;;;;1818795;78;21195;-74
2021/05/15 10:42:02;;;;;;;40.03;29.82;;;13.90;99.90;;;;;;1818524;78;21138;-74
2021/05/15 10:44:43;;;;;;;40.88;29.25;;;13.90;99.90;;;;;;1818962;78;21130;-74
2021/05/15 10:47:11;;;;;;;42.17;30.37;;;13.90;99.90;;;;;;1817529;78;21118;-74
2021/05/15 10:49:44;;;;;;;38.85;30.12;;;14.10;99.90;;;;;;1821906;77;21109;-74
2021/05/15 10:52:12;;;;;;;39.53;29.72;;;14.30;99.90;;;;;;1817802;78;21082;-75
2021/05/15 10:54:41;;;;;;;38.23;29.40;;;14.50;99.90;;;;;;1819361;78;21068;-73
2021/05/15 10:57:14;;;;;;;43.92;32.03;;;14.70;99.90;;;;;;1820437;78;21039;-72
2021/05/15 10:59:43;;;;;;;37.45;29.32;;;14.70;99.90;;;;;;1819266;78;21137;-73
2021/05/15 11:02:13;;;;;;;39.45;30.35;;;14.70;99.90;;;;;;1816017;78;21228;-76
2021/05/15 11:04:54;;;;;;;39.25;30.25;;;14.70;99.90;;;;;;1819731;78;21179;-73
2021/05/15 11:07:24;;;;;;;37.80;30.77;;;14.70;99.90;;;;;;1822166;77;21942;-73
2021/05/15 11:09:53;;;;;;;35.92;29.42;;;14.80;99.90;;;;;;1820506;78;21113;-73
2021/05/15 11:12:21;;;;;;;39.03;29.10;;;15.00;99.90;;;;;;1819647;78;21611;-73
2021/05/15 11:14:51;;;;;;;37.08;30.57;;;14.90;99.90;;;;;;1818225;78;21138;-74
2021/05/15 11:17:25;;;;;;;34.65;28.60;;;15.20;99.90;;;;;;1819278;78;21098;-74
2021/05/15 11:20:07;;;;;;;35.35;29.45;;;15.50;99.90;;;;;;1817647;78;21095;-74
2021/05/15 11:22:40;;;;;;;35.85;29.60;;;15.50;99.90;;;;;;1818288;78;21098;-75
2021/05/15 11:25:16;;;;;;;36.70;29.25;;;15.50;99.90;;;;;;1821856;78;21184;-75
2021/05/15 11:27:52;;;;;;;33.95;28.87;;;15.70;99.90;;;;;;1817450;76;21187;-74
2021/05/15 11:30:22;;;;;;;29.77;25.48;;;16.00;99.90;;;;;;1817756;77;21075;-75
2021/05/15 11:33:01;;;;;;;31.87;26.85;;;16.10;99.90;;;;;;1818229;77;21154;-75
2021/05/15 11:35:31;;;;;;;33.65;25.95;;;16.20;99.90;;;;;;1815949;77;21153;-75
2021/05/15 11:38:09;;;;;;;31.20;24.98;;;16.20;99.90;;;;;;1820027;78;21183;-73
2021/05/15 11:40:48;;;;;;;30.88;26.07;;;15.90;99.90;;;;;;1812295;78;21127;-74
2021/05/15 11:43:36;;;;;;;27.95;24.90;;;15.70;99.90;;;;;;1819362;78;21241;-73
2021/05/15 11:46:06;;;;;;;35.85;26.30;;;15.80;99.90;;;;;;1822535;78;21265;-73
2021/05/15 11:48:37;;;;;;;29.80;25.85;;;16.10;99.90;;;;;;1817697;77;21109;-73
2021/05/15 11:51:16;;;;;;;31.62;24.55;;;16.10;99.90;;;;;;1819214;77;21607;-74
2021/05/15 11:53:50;;;;;;;29.98;25.35;;;16.00;99.90;;;;;;1822264;78;21239;-72
2021/05/15 11:56:22;;;;;;;28.67;25.40;;;16.00;99.90;;;;;;1817864;78;21142;-73
2021/05/15 11:58:57;;;;;;;28.32;25.32;;;16.00;99.90;;;;;;1819642;78;21116;-76
2021/05/15 12:01:31;;;;;;;30.35;25.75;;;15.90;99.90;;;;;;1820203;77;21214;-74
2021/05/15 12:04:22;;;;;;;29.52;26.10;;;15.90;99.90;;;;;;1817500;78;21307;-76
2021/05/15 12:06:46;;;;;;;38.67;26.62;;;15.80;99.90;;;;;;1821370;78;21786;-75
2021/05/15 12:09:17;;;;;;;37.00;29.10;;;15.80;99.90;;;;;;1818704;77;21446;-75
2021/05/15 12:11:46;;;;;;;32.48;27.17;;;15.70;99.90;;;;;;1819734;78;21204;-76
2021/05/15 12:14:14;;;;;;;35.05;27.90;;;15.60;99.90;;;;;;1821675;78;21083;-74
2021/05/15 12:16:41;;;;;;;33.98;27.67;;;15.50;99.90;;;;;;1817825;77;21242;-75
2021/05/15 12:19:12;;;;;;;30.95;26.50;;;15.40;99.90;;;;;;1820092;78;21036;-77
2021/05/15 12:21:40;;;;;;;35.55;28.07;;;15.50;99.90;;;;;;1823122;78;21124;-77
2021/05/15 12:24:08;;;;;;;32.23;27.13;;;15.50;99.90;;;;;;1824969;78;21231;-77
2021/05/15 12:26:36;;;;;;;33.42;27.37;;;15.50;99.90;;;;;;1818016;78;21133;-74
2021/05/15 12:29:05;;;;;;;30.30;25.75;;;15.60;99.90;;;;;;1815937;78;21063;-77
2021/05/15 12:31:35;;;;;;;29.02;25.30;;;15.70;99.90;;;;;;1818787;78;21631;-76
2021/05/15 12:34:05;;;;;;;28.35;24.87;;;15.80;99.90;;;;;;1820784;78;21125;-77
2021/05/15 12:36:34;;;;;;;26.57;23.77;;;16.10;99.90;;;;;;1821940;77;21103;-76